Harrisburg, NE (69345)

4:18 AM MST on March 02, 2015 (GMT -0700)
Old Stage Hill Road | Change Station
CLOSE
Current Station
Personal Weather Station
Location: Gering, NE
Elevation: 4360 ft
Nearby Weather Stations

Elev 4360 ft 41.72 °N, 103.67 °W | Updated 3 seconds ago

Snow
Snow
27.7 °F
Feels Like 28 °F
N
3.0
Wind Variable Wind from South
Gusts 14.0 mph

Today
High -- | Low -- °F
--% Chance of Precip.
Yesterday
High -- | Low -- °F
Precip. -- in
6:28 AM 5:46 PM
Waxing Gibbous, 91% visible
Pressure 30.17 in
Visibility 10.0 miles
Clouds Overcast 9000 ft
Windchill 28 °F
Dew Point 20 °F
Humidity 73%
Rainfall 0.00 in
Snow Depth Not available.
UV 0 out of 12
Pollen .10 out of 12
Air Quality Not available.
Flu Activity Not available.
METAR KBFF 021053Z AUTO 15009KT 10SM OVC090 M01/M08 A3010 RMK AO2 SLP216 T10111078

More Conditions Fewer Conditions

Pressure 30.17 in
Visibility 10.0 miles
Clouds Overcast 9000 ft
Windchill 28 °F
Dew Point 20 °F
Humidity 73%
Rainfall 0.00 in
Snow Depth Not available.
UV 0 out of 12
Pollen .10 out of 12
Air Quality Not available.
Flu Activity Not available.
METAR KBFF 021053Z AUTO 15009KT 10SM OVC090 M01/M08 A3010 RMK AO2 SLP216 T10111078

More Conditions Fewer Conditions

10-Day Weather Forecast

Almanac

Astronomy

Mar. 02, 2015 Rise Set
Actual Time
Civil Twilight
Nautical Twilight
Astronomical Twilight
Moon
Length of Visible Light
Length of Day
Tomorrow will be .
, % of the Moon is Illuminated

Today's Extremes

State Highs State Lows

Community

WunderPhotos

Upload Photos

1,801,756 photos uploaded!

WunderBlogs® & News

Nearby

Air Quality

  Air Quality AQ Index Pollutant
Not available.

Snow Depth

Station Depth Elevation

Earthquake Activity

City Distance Mag. Time & Date
Minimum magnitude displayed is 2.5.

Coastal Water Temperatures

Place Temperature

Nearby Weather Stations